Time,TemperatureF,DewpointF,PressureIn,WindDirection,WindDirectionDegrees,WindSpeedMPH,WindSpeedGustMPH,Humidity,HourlyPrecipIn,Conditions,Clouds,dailyrainin,SoftwareType,DateUTC
2013-11-12 00:02:00,48.4,45.9,30.10,WNW,283,4.0,6.0,91,0.00,,,0.00,WeatherCatV1.23B16,2013-11-12 00:02:00,
2013-11-12 00:07:00,48.3,45.8,30.10,West,276,1.0,4.0,91,0.00,,,0.00,WeatherCatV1.23B16,2013-11-12 00:07:00,
2013-11-12 00:12:00,48.1,45.6,30.10,WNW,297,5.0,5.0,91,0.00,,,0.00,WeatherCatV1.23B16,2013-11-12 00:12:00,
2013-11-12 00:17:00,48.0,45.5,30.10,WSW,250,3.0,5.0,91,0.00,,,0.00,WeatherCatV1.23B16,2013-11-12 00:17:00,
2013-11-12 00:22:00,47.9,45.4,30.10,West,280,2.0,6.0,91,0.00,,,0.01,WeatherCatV1.23B16,2013-11-12 00:22:00,
2013-11-12 00:27:00,47.9,45.1,30.10,SW,236,2.0,5.0,90,0.00,,,0.01,WeatherCatV1.23B16,2013-11-12 00:27:00,
2013-11-12 00:32:00,47.8,45.0,30.11,WSW,248,4.0,4.0,90,0.00,,,0.01,WeatherCatV1.23B16,2013-11-12 00:32:00,
2013-11-12 00:37:00,47.7,44.9,30.11,WSW,238,3.0,4.0,90,0.00,,,0.01,WeatherCatV1.23B16,2013-11-12 00:37:00,
2013-11-12 00:42:00,47.6,44.8,30.11,West,260,2.0,4.0,90,0.00,,,0.01,WeatherCatV1.23B16,2013-11-12 00:42:00,
2013-11-12 00:47:00,47.4,44.6,30.11,West,262,1.0,3.0,90,0.00,,,0.01,WeatherCatV1.23B16,2013-11-12 00:47:00,
2013-11-12 00:52:00,47.3,44.8,30.11,WSW,255,1.0,2.0,91,0.00,,,0.01,WeatherCatV1.23B16,2013-11-12 00:52:00,
2013-11-12 00:57:00,47.2,44.7,30.11,WSW,243,2.0,3.0,91,0.00,,,0.01,WeatherCatV1.23B16,2013-11-12 00:57:00,
2013-11-12 01:02:00,47.1,44.6,30.11,West,269,1.0,2.0,91,0.00,,,0.01,WeatherCatV1.23B16,2013-11-12 01:02:00,
2013-11-12 01:07:00,47.0,44.5,30.11,West,276,1.0,2.0,91,0.00,,,0.01,WeatherCatV1.23B16,2013-11-12 01:07:00,
2013-11-12 01:12:00,47.0,44.5,30.11,West,259,2.0,4.0,91,0.00,,,0.01,WeatherCatV1.23B16,2013-11-12 01:12:00,
2013-11-12 01:17:00,46.9,44.4,30.11,West,278,1.0,2.0,91,0.00,,,0.01,WeatherCatV1.23B16,2013-11-12 01:17:00,
2013-11-12 01:22:00,46.6,44.1,30.11,West,279,1.0,1.0,91,0.00,,,0.01,WeatherCatV1.23B16,2013-11-12 01:22:00,
2013-11-12 01:27:00,46.2,43.7,30.11,NW,316,1.0,1.0,91,0.00,,,0.01,WeatherCatV1.23B16,2013-11-12 01:27:00,
2013-11-12 01:32:00,46.0,43.8,30.11,West,270,0.0,2.0,92,0.00,,,0.01,WeatherCatV1.23B16,2013-11-12 01:32:00,
2013-11-12 01:37:00,45.8,43.6,30.11,West,269,1.0,1.0,92,0.00,,,0.01,WeatherCatV1.23B16,2013-11-12 01:37:00,
2013-11-12 01:42:00,45.9,44.0,30.11,West,270,0.0,1.0,93,0.00,,,0.01,WeatherCatV1.23B16,2013-11-12 01:42:00,
2013-11-12 01:47:00,46.0,44.1,30.12,West,277,0.0,1.0,93,0.00,,,0.01,WeatherCatV1.23B16,2013-11-12 01:47:00,
2013-11-12 01:52:00,46.1,44.2,30.11,West,278,1.0,2.0,93,0.00,,,0.01,WeatherCatV1.23B16,2013-11-12 01:52:00,
2013-11-12 01:57:00,46.4,44.5,30.12,WNW,285,3.0,3.0,93,0.00,,,0.01,WeatherCatV1.23B16,2013-11-12 01:57:00,
2013-11-12 02:02:00,46.6,44.7,30.12,West,266,2.0,3.0,93,0.00,,,0.01,WeatherCatV1.23B16,2013-11-12 02:02:00,
2013-11-12 02:07:00,46.7,44.8,30.12,WNW,283,2.0,3.0,93,0.00,,,0.01,WeatherCatV1.23B16,2013-11-12 02:07:00,
2013-11-12 02:12:00,46.7,44.8,30.12,West,276,2.0,5.0,93,0.00,,,0.01,WeatherCatV1.23B16,2013-11-12 02:12:00,
2013-11-12 02:17:00,46.5,44.6,30.12,West,266,3.0,3.0,93,0.00,,,0.01,WeatherCatV1.23B16,2013-11-12 02:17:00,
2013-11-12 02:22:00,46.3,44.4,30.12,West,269,1.0,2.0,93,0.00,,,0.01,WeatherCatV1.23B16,2013-11-12 02:22:00,
2013-11-12 02:27:00,46.1,44.2,30.13,West,274,2.0,2.0,93,0.00,,,0.01,WeatherCatV1.23B16,2013-11-12 02:27:00,
2013-11-12 02:32:00,45.9,44.0,30.13,WSW,256,2.0,3.0,93,0.00,,,0.01,WeatherCatV1.23B16,2013-11-12 02:32:00,
2013-11-12 02:37:00,45.8,43.9,30.13,West,278,2.0,3.0,93,0.00,,,0.01,WeatherCatV1.23B16,2013-11-12 02:37:00,
2013-11-12 02:42:00,45.7,43.8,30.13,West,262,2.0,3.0,93,0.00,,,0.01,WeatherCatV1.23B16,2013-11-12 02:42:00,
2013-11-12 02:47:00,45.5,43.6,30.13,West,278,2.0,4.0,93,0.00,,,0.01,WeatherCatV1.23B16,2013-11-12 02:47:00,
2013-11-12 02:52:00,45.4,43.5,30.13,West,274,2.0,4.0,93,0.00,,,0.01,WeatherCatV1.23B16,2013-11-12 02:52:00,
2013-11-12 02:57:00,45.2,43.3,30.13,WNW,287,3.0,3.0,93,0.00,,,0.01,WeatherCatV1.23B16,2013-11-12 02:57:00,
2013-11-12 03:03:00,45.1,42.9,30.13,WNW,283,2.0,3.0,92,0.00,,,0.01,WeatherCatV1.23B16,2013-11-12 03:03:00,
2013-11-12 03:08:00,44.8,42.6,30.13,NW,320,1.0,2.0,92,0.00,,,0.01,WeatherCatV1.23B16,2013-11-12 03:08:00,
2013-11-12 03:13:00,44.3,42.1,30.13,NNW,339,1.0,3.0,92,0.00,,,0.01,WeatherCatV1.23B16,2013-11-12 03:13:00,
2013-11-12 03:18:00,44.0,42.1,30.13,WNW,297,1.0,3.0,93,0.00,,,0.01,WeatherCatV1.23B16,2013-11-12 03:18:00,
2013-11-12 03:23:00,44.0,42.1,30.13,WNW,300,1.0,3.0,93,0.00,,,0.01,WeatherCatV1.23B16,2013-11-12 03:23:00,
2013-11-12 03:28:00,44.1,42.2,30.13,West,271,0.0,4.0,93,0.00,,,0.01,WeatherCatV1.23B16,2013-11-12 03:28:00,
2013-11-12 03:33:00,44.4,42.5,30.13,WNW,287,4.0,4.0,93,0.00,,,0.01,WeatherCatV1.23B16,2013-11-12 03:33:00,
2013-11-12 03:38:00,44.7,42.5,30.13,WNW,285,3.0,5.0,92,0.00,,,0.01,WeatherCatV1.23B16,2013-11-12 03:38:00,
2013-11-12 03:43:00,45.1,42.9,30.14,West,260,10.0,15.0,92,0.00,,,0.01,WeatherCatV1.23B16,2013-11-12 03:43:00,
2013-11-12 03:48:00,46.1,43.6,30.14,SW,236,10.0,11.0,91,0.00,,,0.01,WeatherCatV1.23B16,2013-11-12 03:48:00,
2013-11-12 03:53:00,46.1,43.3,30.13,WSW,243,4.0,8.0,90,0.00,,,0.01,WeatherCatV1.23B16,2013-11-12 03:53:00,
2013-11-12 03:58:00,46.1,43.0,30.14,West,262,3.0,5.0,89,0.00,,,0.01,WeatherCatV1.23B16,2013-11-12 03:58:00,
2013-11-12 04:03:00,45.9,42.8,30.14,WNW,283,3.0,5.0,89,0.00,,,0.01,WeatherCatV1.23B16,2013-11-12 04:03:00,
2013-11-12 04:08:00,45.6,42.5,30.14,WNW,283,2.0,4.0,89,0.00,,,0.01,WeatherCatV1.23B16,2013-11-12 04:08:00,
2013-11-12 04:13:00,45.3,42.2,30.14,WNW,287,2.0,3.0,89,0.00,,,0.01,WeatherCatV1.23B16,2013-11-12 04:13:00,
2013-11-12 04:18:00,45.1,42.3,30.15,West,268,3.0,6.0,90,0.00,,,0.01,WeatherCatV1.23B16,2013-11-12 04:18:00,
2013-11-12 04:23:00,45.2,42.4,30.15,West,276,2.0,4.0,90,0.00,,,0.01,WeatherCatV1.23B16,2013-11-12 04:23:00,
2013-11-12 04:28:00,45.2,42.4,30.15,WNW,282,3.0,4.0,90,0.00,,,0.01,WeatherCatV1.23B16,2013-11-12 04:28:00,
2013-11-12 04:33:00,44.9,42.2,30.15,West,274,2.0,4.0,90,0.00,,,0.01,WeatherCatV1.23B16,2013-11-12 04:33:00,
2013-11-12 04:38:00,44.8,42.0,30.15,West,277,2.0,4.0,90,0.00,,,0.01,WeatherCatV1.23B16,2013-11-12 04:38:00,
2013-11-12 04:43:00,44.6,41.8,30.16,West,271,2.0,3.0,90,0.00,,,0.01,WeatherCatV1.23B16,2013-11-12 04:43:00,
2013-11-12 04:48:00,44.5,41.8,30.16,West,274,2.0,2.0,90,0.00,,,0.01,WeatherCatV1.23B16,2013-11-12 04:48:00,
2013-11-12 04:53:00,44.3,41.8,30.16,WNW,297,3.0,4.0,91,0.00,,,0.01,WeatherCatV1.23B16,2013-11-12 04:53:00,
2013-11-12 04:58:00,44.5,42.0,30.16,WNW,283,4.0,5.0,91,0.00,,,0.01,WeatherCatV1.23B16,2013-11-12 04:58:00,
2013-11-12 05:01:00,44.5,42.0,30.16,NW,304,4.0,5.0,91,0.00,,,0.01,WeatherCatV1.23B16,2013-11-12 05:01:00,
2013-11-12 05:02:00,44.6,41.8,30.16,WNW,299,5.0,6.0,90,0.00,,,0.01,WeatherCatV1.23B16,2013-11-12 05:02:00,
2013-11-12 05:07:00,44.8,42.0,30.17,West,281,3.0,4.0,90,0.00,,,0.01,WeatherCatV1.23B16,2013-11-12 05:07:00,
2013-11-12 05:12:00,44.8,42.0,30.17,WSW,243,2.0,4.0,90,0.00,,,0.01,WeatherCatV1.23B16,2013-11-12 05:12:00,
2013-11-12 05:17:00,44.7,42.0,30.17,West,267,2.0,4.0,90,0.00,,,0.01,WeatherCatV1.23B16,2013-11-12 05:17:00,
2013-11-12 05:22:00,44.4,41.7,30.17,West,267,3.0,4.0,90,0.00,,,0.01,WeatherCatV1.23B16,2013-11-12 05:22:00,
2013-11-12 05:27:00,44.2,41.5,30.17,WNW,297,3.0,5.0,90,0.00,,,0.01,WeatherCatV1.23B16,2013-11-12 05:27:00,
2013-11-12 05:32:00,44.0,41.5,30.17,West,273,2.0,4.0,91,0.00,,,0.01,WeatherCatV1.23B16,2013-11-12 05:32:00,
2013-11-12 05:37:00,44.0,41.5,30.17,West,272,2.0,5.0,91,0.00,,,0.01,WeatherCatV1.23B16,2013-11-12 05:37:00,
2013-11-12 05:42:00,43.9,41.4,30.17,WSW,255,4.0,6.0,91,0.00,,,0.01,WeatherCatV1.23B16,2013-11-12 05:42:00,
2013-11-12 05:47:00,44.0,41.5,30.18,WNW,293,3.0,6.0,91,0.00,,,0.01,WeatherCatV1.23B16,2013-11-12 05:47:00,
2013-11-12 05:52:00,44.1,41.6,30.18,West,281,3.0,6.0,91,0.00,,,0.01,WeatherCatV1.23B16,2013-11-12 05:52:00,
2013-11-12 05:57:00,44.1,41.6,30.18,WNW,284,5.0,6.0,91,0.00,,,0.01,WeatherCatV1.23B16,2013-11-12 05:57:00,
2013-11-12 06:02:00,44.2,41.7,30.18,West,271,4.0,6.0,91,0.00,,,0.01,WeatherCatV1.23B16,2013-11-12 06:02:00,
2013-11-12 06:07:00,44.5,42.0,30.18,NW,309,2.0,8.0,91,0.00,,,0.01,WeatherCatV1.23B16,2013-11-12 06:07:00,
2013-11-12 06:12:00,44.9,42.4,30.18,West,259,3.0,8.0,91,0.00,,,0.01,WeatherCatV1.23B16,2013-11-12 06:12:00,
2013-11-12 06:17:00,45.0,42.5,30.19,WNW,290,7.0,7.0,91,0.00,,,0.01,WeatherCatV1.23B16,2013-11-12 06:17:00,
2013-11-12 06:22:00,45.2,42.4,30.19,West,274,3.0,7.0,90,0.00,,,0.01,WeatherCatV1.23B16,2013-11-12 06:22:00,
2013-11-12 06:27:00,45.4,42.6,30.20,West,277,6.0,7.0,90,0.00,,,0.01,WeatherCatV1.23B16,2013-11-12 06:27:00,
2013-11-12 06:32:00,45.5,42.5,30.20,WNW,291,2.0,6.0,89,0.00,,,0.01,WeatherCatV1.23B16,2013-11-12 06:32:00,
2013-11-12 06:37:00,45.3,42.2,30.20,NW,325,1.0,5.0,89,0.00,,,0.01,WeatherCatV1.23B16,2013-11-12 06:37:00,
2013-11-12 06:42:00,45.0,42.0,30.21,WNW,290,6.0,6.0,89,0.00,,,0.01,WeatherCatV1.23B16,2013-11-12 06:42:00,
2013-11-12 06:47:00,44.7,42.0,30.21,West,276,4.0,4.0,90,0.00,,,0.01,WeatherCatV1.23B16,2013-11-12 06:47:00,
2013-11-12 06:52:00,44.5,41.8,30.21,WNW,283,1.0,5.0,90,0.00,,,0.01,WeatherCatV1.23B16,2013-11-12 06:52:00,
2013-11-12 06:57:00,44.4,41.7,30.22,WNW,288,4.0,5.0,90,0.00,,,0.01,WeatherCatV1.23B16,2013-11-12 06:57:00,
2013-11-12 07:02:00,44.3,41.5,30.22,WNW,293,3.0,7.0,90,0.00,,,0.01,WeatherCatV1.23B16,2013-11-12 07:02:00,
2013-11-12 07:07:00,44.4,41.7,30.22,West,276,3.0,5.0,90,0.00,,,0.01,WeatherCatV1.23B16,2013-11-12 07:07:00,
2013-11-12 07:12:00,44.6,41.8,30.22,WNW,293,6.0,6.0,90,0.00,,,0.01,WeatherCatV1.23B16,2013-11-12 07:12:00,
2013-11-12 07:17:00,44.7,42.0,30.23,WNW,283,4.0,5.0,90,0.00,,,0.01,WeatherCatV1.23B16,2013-11-12 07:17:00,
2013-11-12 07:22:00,44.7,42.0,30.23,WNW,282,3.0,4.0,90,0.00,,,0.01,WeatherCatV1.23B16,2013-11-12 07:22:00,
2013-11-12 07:27:00,44.6,41.6,30.23,West,276,3.0,4.0,89,0.00,,,0.01,WeatherCatV1.23B16,2013-11-12 07:27:00,
2013-11-12 07:32:00,44.6,41.6,30.23,West,267,2.0,3.0,89,0.00,,,0.01,WeatherCatV1.23B16,2013-11-12 07:32:00,
2013-11-12 07:37:00,44.5,41.5,30.23,West,262,2.0,4.0,89,0.00,,,0.01,WeatherCatV1.23B16,2013-11-12 07:37:00,
2013-11-12 07:42:00,44.6,41.6,30.23,West,267,3.0,4.0,89,0.00,,,0.01,WeatherCatV1.23B16,2013-11-12 07:42:00,
2013-11-12 07:47:00,44.6,41.3,30.24,West,278,4.0,5.0,88,0.00,,,0.01,WeatherCatV1.23B16,2013-11-12 07:47:00,
2013-11-12 07:52:00,44.8,41.2,30.24,WSW,250,3.0,5.0,87,0.00,,,0.01,WeatherCatV1.23B16,2013-11-12 07:52:00,
2013-11-12 07:57:00,45.0,41.1,30.24,West,278,4.0,5.0,86,0.00,,,0.01,WeatherCatV1.23B16,2013-11-12 07:57:00,
2013-11-12 08:02:00,45.0,41.1,30.24,West,281,2.0,3.0,86,0.00,,,0.01,WeatherCatV1.23B16,2013-11-12 08:02:00,
2013-11-12 08:07:00,44.8,40.9,30.25,West,278,3.0,3.0,86,0.00,,,0.01,WeatherCatV1.23B16,2013-11-12 08:07:00,
2013-11-12 08:12:00,44.5,40.6,30.25,WNW,291,3.0,4.0,86,0.00,,,0.01,WeatherCatV1.23B16,2013-11-12 08:12:00,
2013-11-12 08:17:00,44.5,40.6,30.25,WNW,297,2.0,5.0,86,0.00,,,0.01,WeatherCatV1.23B16,2013-11-12 08:17:00,
2013-11-12 08:22:00,44.5,40.9,30.25,NW,309,1.0,4.0,87,0.00,,,0.01,WeatherCatV1.23B16,2013-11-12 08:22:00,
2013-11-12 08:27:00,44.6,41.0,30.26,WNW,294,1.0,2.0,87,0.00,,,0.01,WeatherCatV1.23B16,2013-11-12 08:27:00,
2013-11-12 08:32:00,44.6,41.0,30.26,WNW,301,2.0,2.0,87,0.00,,,0.01,WeatherCatV1.23B16,2013-11-12 08:32:00,
2013-11-12 08:37:00,44.7,41.1,30.27,WNW,283,2.0,4.0,87,0.00,,,0.01,WeatherCatV1.23B16,2013-11-12 08:37:00,
2013-11-12 08:42:00,44.9,41.6,30.27,West,266,2.0,4.0,88,0.00,,,0.01,WeatherCatV1.23B16,2013-11-12 08:42:00,
2013-11-12 08:47:00,45.3,41.7,30.27,WSW,248,4.0,4.0,87,0.00,,,0.01,WeatherCatV1.23B16,2013-11-12 08:47:00,
2013-11-12 08:52:00,45.6,42.0,30.27,West,260,3.0,5.0,87,0.00,,,0.01,WeatherCatV1.23B16,2013-11-12 08:52:00,
2013-11-12 08:57:00,45.6,42.0,30.27,SW,222,3.0,4.0,87,0.00,,,0.01,WeatherCatV1.23B16,2013-11-12 08:57:00,
2013-11-12 09:02:00,45.2,41.6,30.27,WSW,240,1.0,2.0,87,0.00,,,0.01,WeatherCatV1.23B16,2013-11-12 09:02:00,
2013-11-12 09:07:00,44.9,41.6,30.27,WNW,293,2.0,3.0,88,0.00,,,0.01,WeatherCatV1.23B16,2013-11-12 09:07:00,
2013-11-12 09:12:00,44.7,41.4,30.27,SW,219,3.0,4.0,88,0.00,,,0.01,WeatherCatV1.23B16,2013-11-12 09:12:00,
2013-11-12 09:17:00,44.8,41.8,30.27,WSW,238,2.0,2.0,89,0.00,,,0.01,WeatherCatV1.23B16,2013-11-12 09:17:00,
2013-11-12 09:22:00,44.9,41.9,30.28,WSW,238,2.0,3.0,89,0.00,,,0.01,WeatherCatV1.23B16,2013-11-12 09:22:00,
2013-11-12 09:27:00,45.3,42.2,30.28,WSW,245,2.0,3.0,89,0.00,,,0.01,WeatherCatV1.23B16,2013-11-12 09:27:00,
2013-11-12 09:32:00,45.7,42.7,30.28,WNW,283,4.0,5.0,89,0.00,,,0.01,WeatherCatV1.23B16,2013-11-12 09:32:00,
2013-11-12 09:37:00,46.3,42.9,30.29,WNW,285,3.0,4.0,88,0.00,,,0.01,WeatherCatV1.23B16,2013-11-12 09:37:00,
2013-11-12 09:42:00,46.9,43.2,30.29,West,280,4.0,5.0,87,0.00,,,0.01,WeatherCatV1.23B16,2013-11-12 09:42:00,
2013-11-12 09:47:00,47.1,43.1,30.29,WSW,252,2.0,4.0,86,0.00,,,0.01,WeatherCatV1.23B16,2013-11-12 09:47:00,
2013-11-12 09:52:00,47.3,43.3,30.29,West,264,3.0,4.0,86,0.00,,,0.01,WeatherCatV1.23B16,2013-11-12 09:52:00,
2013-11-12 09:57:00,47.5,43.5,30.29,WNW,285,2.0,3.0,86,0.00,,,0.01,WeatherCatV1.23B16,2013-11-12 09:57:00,
2013-11-12 10:02:00,47.7,43.7,30.30,West,274,1.0,2.0,86,0.00,,,0.01,WeatherCatV1.23B16,2013-11-12 10:02:00,
2013-11-12 10:07:00,47.8,43.5,30.30,WNW,285,1.0,5.0,85,0.00,,,0.01,WeatherCatV1.23B16,2013-11-12 10:07:00,
2013-11-12 10:12:00,48.0,43.7,30.30,West,277,3.0,4.0,85,0.00,,,0.01,WeatherCatV1.23B16,2013-11-12 10:12:00,
2013-11-12 10:17:00,48.1,43.8,30.30,West,280,3.0,4.0,85,0.00,,,0.01,WeatherCatV1.23B16,2013-11-12 10:17:00,
2013-11-12 10:22:00,48.3,44.0,30.30,WSW,255,5.0,7.0,85,0.00,,,0.01,WeatherCatV1.23B16,2013-11-12 10:22:00,
2013-11-12 10:27:00,48.5,44.2,30.31,West,263,4.0,5.0,85,0.00,,,0.01,WeatherCatV1.23B16,2013-11-12 10:27:00,
2013-11-12 10:32:00,48.8,44.8,30.31,WSW,249,4.0,4.0,86,0.00,,,0.01,WeatherCatV1.23B16,2013-11-12 10:32:00,
2013-11-12 10:37:00,49.0,44.7,30.31,West,263,2.0,3.0,85,0.00,,,0.01,WeatherCatV1.23B16,2013-11-12 10:37:00,
2013-11-12 10:42:00,49.2,44.6,30.31,West,262,1.0,3.0,84,0.00,,,0.01,WeatherCatV1.23B16,2013-11-12 10:42:00,
2013-11-12 10:47:00,49.5,45.2,30.31,SW,224,5.0,6.0,85,0.00,,,0.01,WeatherCatV1.23B16,2013-11-12 10:47:00,
2013-11-12 10:52:00,49.5,44.9,30.31,WNW,284,5.0,8.0,84,0.00,,,0.01,WeatherCatV1.23B16,2013-11-12 10:52:00,
2013-11-12 10:57:00,49.6,45.3,30.31,WSW,240,2.0,3.0,85,0.00,,,0.01,WeatherCatV1.23B16,2013-11-12 10:57:00,
2013-11-12 11:02:00,49.9,45.3,30.31,SW,221,3.0,4.0,84,0.00,,,0.01,WeatherCatV1.23B16,2013-11-12 11:02:00,
2013-11-12 11:07:00,50.1,44.8,30.31,WSW,257,4.0,5.0,82,0.00,,,0.01,WeatherCatV1.23B16,2013-11-12 11:07:00,
2013-11-12 11:12:00,50.5,44.9,30.31,SW,221,4.0,8.0,81,0.00,,,0.01,WeatherCatV1.23B16,2013-11-12 11:12:00,
2013-11-12 11:17:00,50.7,44.8,30.31,WNW,282,5.0,8.0,80,0.00,,,0.01,WeatherCatV1.23B16,2013-11-12 11:17:00,
2013-11-12 11:22:00,50.6,44.7,30.31,West,262,3.0,6.0,80,0.00,,,0.01,WeatherCatV1.23B16,2013-11-12 11:22:00,
2013-11-12 11:27:00,50.4,44.8,30.31,West,276,3.0,5.0,81,0.00,,,0.01,WeatherCatV1.23B16,2013-11-12 11:27:00,
2013-11-12 11:32:00,50.3,44.7,30.32,West,266,5.0,6.0,81,0.00,,,0.01,WeatherCatV1.23B16,2013-11-12 11:32:00,
2013-11-12 11:37:00,50.2,44.6,30.32,WNW,287,3.0,6.0,81,0.00,,,0.01,WeatherCatV1.23B16,2013-11-12 11:37:00,
2013-11-12 11:42:00,50.2,44.6,30.32,SW,236,1.0,4.0,81,0.00,,,0.01,WeatherCatV1.23B16,2013-11-12 11:42:00,
2013-11-12 11:47:00,50.5,44.9,30.33,West,278,4.0,8.0,81,0.00,,,0.01,WeatherCatV1.23B16,2013-11-12 11:47:00,
2013-11-12 11:52:00,50.8,45.2,30.33,West,274,4.0,9.0,81,0.00,,,0.01,WeatherCatV1.23B16,2013-11-12 11:52:00,
2013-11-12 11:57:00,51.1,45.2,30.33,West,267,7.0,8.0,80,0.00,,,0.01,WeatherCatV1.23B16,2013-11-12 11:57:00,
2013-11-12 12:02:00,51.3,44.7,30.33,WNW,290,7.0,9.0,78,0.00,,,0.01,WeatherCatV1.23B16,2013-11-12 12:02:00,
2013-11-12 12:07:00,51.4,44.4,30.33,SW,233,7.0,10.0,77,0.00,,,0.01,WeatherCatV1.23B16,2013-11-12 12:07:00,
2013-11-12 12:12:00,51.6,45.0,30.33,NW,309,6.0,13.0,78,0.00,,,0.01,WeatherCatV1.23B16,2013-11-12 12:12:00,
2013-11-12 12:17:00,51.7,44.7,30.33,West,262,5.0,13.0,77,0.00,,,0.01,WeatherCatV1.23B16,2013-11-12 12:17:00,
2013-11-12 12:22:00,51.8,43.8,30.33,West,271,9.0,12.0,74,0.00,,,0.01,WeatherCatV1.23B16,2013-11-12 12:22:00,
2013-11-12 12:27:00,51.8,43.8,30.32,West,259,9.0,13.0,74,0.00,,,0.01,WeatherCatV1.23B16,2013-11-12 12:27:00,
2013-11-12 12:32:00,51.8,43.8,30.32,West,278,4.0,11.0,74,0.00,,,0.01,WeatherCatV1.23B16,2013-11-12 12:32:00,
2013-11-12 12:37:00,51.8,43.8,30.32,NW,305,8.0,12.0,74,0.00,,,0.01,WeatherCatV1.23B16,2013-11-12 12:37:00,
2013-11-12 12:42:00,51.8,43.1,30.32,West,277,11.0,14.0,72,0.00,,,0.01,WeatherCatV1.23B16,2013-11-12 12:42:00,
2013-11-12 12:47:00,51.7,43.0,30.32,West,270,10.0,15.0,72,0.00,,,0.01,WeatherCatV1.23B16,2013-11-12 12:47:00,
2013-11-12 12:52:00,51.9,43.5,30.32,NW,314,6.0,12.0,73,0.00,,,0.01,WeatherCatV1.23B16,2013-11-12 12:52:00,
2013-11-12 12:57:00,51.9,43.2,30.33,NW,314,6.0,17.0,72,0.00,,,0.01,WeatherCatV1.23B16,2013-11-12 12:57:00,
2013-11-12 13:02:00,52.0,42.9,30.32,WNW,291,10.0,13.0,71,0.00,,,0.01,WeatherCatV1.23B16,2013-11-12 13:02:00,
2013-11-12 13:07:00,52.0,42.9,30.33,West,266,4.0,10.0,71,0.00,,,0.01,WeatherCatV1.23B16,2013-11-12 13:07:00,
2013-11-12 13:12:00,52.1,42.2,30.33,WNW,283,6.0,12.0,69,0.00,,,0.01,WeatherCatV1.23B16,2013-11-12 13:12:00,
2013-11-12 13:17:00,52.2,42.3,30.33,WSW,245,11.0,12.0,69,0.00,,,0.01,WeatherCatV1.23B16,2013-11-12 13:17:00,
2013-11-12 13:22:00,52.2,42.3,30.33,West,278,14.0,15.0,69,0.00,,,0.01,WeatherCatV1.23B16,2013-11-12 13:22:00,
2013-11-12 13:27:00,52.0,43.3,30.33,WSW,256,11.0,14.0,72,0.00,,,0.01,WeatherCatV1.23B16,2013-11-12 13:27:00,
2013-11-12 13:32:00,51.8,43.4,30.34,WNW,282,5.0,12.0,73,0.00,,,0.01,WeatherCatV1.23B16,2013-11-12 13:32:00,
2013-11-12 13:37:00,51.8,43.4,30.34,West,271,8.0,14.0,73,0.00,,,0.01,WeatherCatV1.23B16,2013-11-12 13:37:00,
2013-11-12 13:42:00,52.0,43.3,30.34,WNW,282,9.0,16.0,72,0.00,,,0.01,WeatherCatV1.23B16,2013-11-12 13:42:00,
2013-11-12 13:47:00,52.1,42.2,30.34,West,261,7.0,15.0,69,0.00,,,0.01,WeatherCatV1.23B16,2013-11-12 13:47:00,
2013-11-12 13:52:00,52.1,43.0,30.34,West,280,7.0,8.0,71,0.00,,,0.01,WeatherCatV1.23B16,2013-11-12 13:52:00,
2013-11-12 13:57:00,51.9,42.4,30.34,WNW,291,3.0,14.0,70,0.00,,,0.01,WeatherCatV1.23B16,2013-11-12 13:57:00,
2013-11-12 14:02:00,51.6,42.5,30.34,West,259,11.0,13.0,71,0.00,,,0.01,WeatherCatV1.23B16,2013-11-12 14:02:00,
2013-11-12 14:07:00,51.7,42.6,30.34,WNW,287,6.0,9.0,71,0.00,,,0.01,WeatherCatV1.23B16,2013-11-12 14:07:00,
2013-11-12 14:12:00,51.4,42.0,30.34,West,276,15.0,15.0,70,0.00,,,0.01,WeatherCatV1.23B16,2013-11-12 14:12:00,
2013-11-12 14:17:00,50.8,41.7,30.34,West,280,6.0,11.0,71,0.00,,,0.01,WeatherCatV1.23B16,2013-11-12 14:17:00,
2013-11-12 14:22:00,50.4,41.7,30.35,West,260,7.0,11.0,72,0.00,,,0.01,WeatherCatV1.23B16,2013-11-12 14:22:00,
2013-11-12 14:27:00,50.6,41.9,30.34,West,266,12.0,12.0,72,0.00,,,0.01,WeatherCatV1.23B16,2013-11-12 14:27:00,
2013-11-12 14:32:00,51.0,41.9,30.34,West,267,9.0,12.0,71,0.00,,,0.01,WeatherCatV1.23B16,2013-11-12 14:32:00,
2013-11-12 14:37:00,51.1,42.0,30.34,West,268,8.0,13.0,71,0.00,,,0.01,WeatherCatV1.23B16,2013-11-12 14:37:00,
2013-11-12 14:42:00,51.1,42.0,30.34,West,276,5.0,10.0,71,0.00,,,0.01,WeatherCatV1.23B16,2013-11-12 14:42:00,
2013-11-12 14:47:00,50.7,42.0,30.34,West,262,6.0,10.0,72,0.00,,,0.01,WeatherCatV1.23B16,2013-11-12 14:47:00,
2013-11-12 14:52:00,50.4,42.4,30.35,NW,324,5.0,11.0,74,0.00,,,0.01,WeatherCatV1.23B16,2013-11-12 14:52:00,
2013-11-12 14:57:00,50.1,42.5,30.35,West,259,5.0,12.0,75,0.00,,,0.01,WeatherCatV1.23B16,2013-11-12 14:57:00,
2013-11-12 15:02:00,50.0,42.7,30.35,West,281,5.0,11.0,76,0.00,,,0.01,WeatherCatV1.23B16,2013-11-12 15:02:00,
2013-11-12 15:07:00,50.3,43.0,30.35,WNW,287,6.0,9.0,76,0.00,,,0.01,WeatherCatV1.23B16,2013-11-12 15:07:00,
2013-11-12 15:12:00,50.6,43.0,30.35,SW,219,7.0,10.0,75,0.00,,,0.01,WeatherCatV1.23B16,2013-11-12 15:12:00,
2013-11-12 15:17:00,50.8,42.8,30.35,WNW,301,4.0,11.0,74,0.00,,,0.01,WeatherCatV1.23B16,2013-11-12 15:17:00,
2013-11-12 15:22:00,50.8,42.8,30.36,West,262,4.0,9.0,74,0.00,,,0.01,WeatherCatV1.23B16,2013-11-12 15:22:00,
2013-11-12 15:27:00,50.7,42.7,30.36,WSW,255,4.0,9.0,74,0.00,,,0.01,WeatherCatV1.23B16,2013-11-12 15:27:00,
2013-11-12 15:32:00,50.6,43.0,30.36,West,281,2.0,10.0,75,0.00,,,0.01,WeatherCatV1.23B16,2013-11-12 15:32:00,
2013-11-12 15:37:00,50.4,42.8,30.36,West,269,3.0,7.0,75,0.00,,,0.01,WeatherCatV1.23B16,2013-11-12 15:37:00,
2013-11-12 15:42:00,50.0,42.7,30.36,West,266,4.0,5.0,76,0.00,,,0.01,WeatherCatV1.23B16,2013-11-12 15:42:00,
2013-11-12 15:47:00,49.6,42.7,30.36,West,262,2.0,6.0,77,0.00,,,0.01,WeatherCatV1.23B16,2013-11-12 15:47:00,
2013-11-12 15:52:00,49.4,42.8,30.36,WNW,291,2.0,5.0,78,0.00,,,0.01,WeatherCatV1.23B16,2013-11-12 15:52:00,
2013-11-12 15:57:00,49.1,42.5,30.36,WSW,240,2.0,3.0,78,0.00,,,0.01,WeatherCatV1.23B16,2013-11-12 15:57:00,
2013-11-12 16:02:00,49.1,42.9,30.37,West,267,4.0,5.0,79,0.00,,,0.01,WeatherCatV1.23B16,2013-11-12 16:02:00,
2013-11-12 16:07:00,49.2,43.3,30.37,WNW,287,1.0,2.0,80,0.00,,,0.01,WeatherCatV1.23B16,2013-11-12 16:07:00,
2013-11-12 16:12:00,48.9,43.0,30.37,WNW,287,1.0,4.0,80,0.00,,,0.01,WeatherCatV1.23B16,2013-11-12 16:12:00,
2013-11-12 16:17:00,48.8,43.2,30.37,WSW,253,1.0,4.0,81,0.00,,,0.01,WeatherCatV1.23B16,2013-11-12 16:17:00,
2013-11-12 16:22:00,48.5,42.9,30.37,West,281,1.0,3.0,81,0.00,,,0.01,WeatherCatV1.23B16,2013-11-12 16:22:00,
2013-11-12 16:27:00,48.2,43.0,30.37,WSW,252,0.0,1.0,82,0.00,,,0.01,WeatherCatV1.23B16,2013-11-12 16:27:00,
2013-11-12 16:32:00,48.0,42.8,30.38,WSW,257,0.0,2.0,82,0.00,,,0.01,WeatherCatV1.23B16,2013-11-12 16:32:00,
2013-11-12 16:37:00,47.8,42.9,30.38,SW,217,0.0,2.0,83,0.00,,,0.01,WeatherCatV1.23B16,2013-11-12 16:37:00,
2013-11-12 16:42:00,47.6,42.7,30.38,West,262,0.0,1.0,83,0.00,,,0.01,WeatherCatV1.23B16,2013-11-12 16:42:00,
2013-11-12 16:47:00,47.2,42.6,30.38,West,260,2.0,2.0,84,0.00,,,0.01,WeatherCatV1.23B16,2013-11-12 16:47:00,
2013-11-12 16:52:00,46.9,42.3,30.38,SW,232,0.0,1.0,84,0.00,,,0.01,WeatherCatV1.23B16,2013-11-12 16:52:00,
2013-11-12 16:57:00,46.5,41.9,30.38,WSW,255,0.0,1.0,84,0.00,,,0.01,WeatherCatV1.23B16,2013-11-12 16:57:00,
2013-11-12 17:02:00,46.3,42.0,30.39,West,264,1.0,3.0,85,0.00,,,0.01,WeatherCatV1.23B16,2013-11-12 17:02:00,
2013-11-12 17:07:00,46.3,42.0,30.39,WSW,245,1.0,1.0,85,0.00,,,0.01,WeatherCatV1.23B16,2013-11-12 17:07:00,
2013-11-12 17:12:00,46.3,42.0,30.39,WNW,283,2.0,2.0,85,0.00,,,0.01,WeatherCatV1.23B16,2013-11-12 17:12:00,
2013-11-12 17:17:00,46.4,41.8,30.39,WSW,240,4.0,4.0,84,0.00,,,0.01,WeatherCatV1.23B16,2013-11-12 17:17:00,
2013-11-12 17:22:00,46.3,41.7,30.39,West,266,3.0,4.0,84,0.00,,,0.01,WeatherCatV1.23B16,2013-11-12 17:22:00,
2013-11-12 17:27:00,46.3,41.7,30.40,West,270,2.0,4.0,84,0.00,,,0.01,WeatherCatV1.23B16,2013-11-12 17:27:00,
2013-11-12 17:32:00,46.1,41.5,30.40,West,263,1.0,2.0,84,0.00,,,0.01,WeatherCatV1.23B16,2013-11-12 17:32:00,
2013-11-12 17:37:00,46.1,41.5,30.40,West,271,1.0,2.0,84,0.00,,,0.01,WeatherCatV1.23B16,2013-11-12 17:37:00,
2013-11-12 17:42:00,46.0,41.8,30.40,West,280,1.0,1.0,85,0.00,,,0.01,WeatherCatV1.23B16,2013-11-12 17:42:00,
2013-11-12 17:47:00,45.9,41.7,30.40,WSW,257,3.0,3.0,85,0.00,,,0.01,WeatherCatV1.23B16,2013-11-12 17:47:00,
2013-11-12 17:52:00,45.9,41.7,30.40,West,277,5.0,7.0,85,0.00,,,0.01,WeatherCatV1.23B16,2013-11-12 17:52:00,
2013-11-12 17:57:00,45.8,41.5,30.41,West,280,5.0,5.0,85,0.00,,,0.01,WeatherCatV1.23B16,2013-11-12 17:57:00,
2013-11-12 18:02:00,45.8,41.5,30.41,West,259,6.0,8.0,85,0.00,,,0.01,WeatherCatV1.23B16,2013-11-12 18:02:00,
2013-11-12 18:07:00,46.0,41.8,30.41,West,264,3.0,6.0,85,0.00,,,0.01,WeatherCatV1.23B16,2013-11-12 18:07:00,
2013-11-12 18:12:00,46.2,41.9,30.40,WSW,256,4.0,6.0,85,0.00,,,0.01,WeatherCatV1.23B16,2013-11-12 18:12:00,
2013-11-12 18:17:00,46.4,41.8,30.41,West,259,2.0,3.0,84,0.00,,,0.01,WeatherCatV1.23B16,2013-11-12 18:17:00,
2013-11-12 18:22:00,46.3,41.7,30.41,West,263,3.0,5.0,84,0.00,,,0.01,WeatherCatV1.23B16,2013-11-12 18:22:00,
2013-11-12 18:27:00,46.1,41.5,30.41,West,274,2.0,4.0,84,0.00,,,0.01,WeatherCatV1.23B16,2013-11-12 18:27:00,
2013-11-12 18:32:00,45.9,41.3,30.41,West,273,3.0,5.0,84,0.00,,,0.01,WeatherCatV1.23B16,2013-11-12 18:32:00,
2013-11-12 18:37:00,45.7,41.5,30.42,West,277,3.0,4.0,85,0.00,,,0.01,WeatherCatV1.23B16,2013-11-12 18:37:00,
2013-11-12 18:42:00,45.7,41.2,30.42,WNW,288,3.0,6.0,84,0.00,,,0.01,WeatherCatV1.23B16,2013-11-12 18:42:00,
2013-11-12 18:47:00,45.7,41.2,30.42,WNW,293,3.0,3.0,84,0.00,,,0.01,WeatherCatV1.23B16,2013-11-12 18:47:00,
2013-11-12 18:52:00,45.7,41.2,30.42,West,277,2.0,5.0,84,0.00,,,0.01,WeatherCatV1.23B16,2013-11-12 18:52:00,
2013-11-12 18:57:00,45.7,41.2,30.42,WNW,283,2.0,5.0,84,0.00,,,0.01,WeatherCatV1.23B16,2013-11-12 18:57:00,
2013-11-12 19:02:00,45.5,41.0,30.42,NW,318,1.0,4.0,84,0.00,,,0.01,WeatherCatV1.23B16,2013-11-12 19:02:00,
2013-11-12 19:07:00,45.3,40.8,30.42,WNW,288,2.0,3.0,84,0.00,,,0.01,WeatherCatV1.23B16,2013-11-12 19:07:00,
2013-11-12 19:12:00,45.1,40.9,30.42,West,273,1.0,3.0,85,0.00,,,0.01,WeatherCatV1.23B16,2013-11-12 19:12:00,
2013-11-12 19:17:00,45.0,40.8,30.42,West,264,1.0,2.0,85,0.00,,,0.01,WeatherCatV1.23B16,2013-11-12 19:17:00,
2013-11-12 19:22:00,44.9,40.7,30.42,WSW,256,2.0,3.0,85,0.00,,,0.01,WeatherCatV1.23B16,2013-11-12 19:22:00,
2013-11-12 19:27:00,44.7,40.8,30.43,West,270,0.0,0.0,86,0.00,,,0.01,WeatherCatV1.23B16,2013-11-12 19:27:00,
2013-11-12 19:32:00,44.4,40.5,30.43,West,268,0.0,1.0,86,0.00,,,0.01,WeatherCatV1.23B16,2013-11-12 19:32:00,
2013-11-12 19:37:00,44.2,40.3,30.43,West,269,0.0,0.0,86,0.00,,,0.01,WeatherCatV1.23B16,2013-11-12 19:37:00,
2013-11-12 19:42:00,43.8,40.2,30.43,West,269,0.0,0.0,87,0.00,,,0.01,WeatherCatV1.23B16,2013-11-12 19:42:00,
2013-11-12 19:47:00,43.4,39.8,30.43,West,269,0.0,0.0,87,0.00,,,0.01,WeatherCatV1.23B16,2013-11-12 19:47:00,
2013-11-12 19:52:00,43.0,39.7,30.43,West,268,0.0,0.0,88,0.00,,,0.01,WeatherCatV1.23B16,2013-11-12 19:52:00,
2013-11-12 19:57:00,42.7,39.4,30.43,West,269,0.0,0.0,88,0.00,,,0.01,WeatherCatV1.23B16,2013-11-12 19:57:00,
2013-11-12 20:02:00,42.5,39.5,30.43,SW,214,0.0,1.0,89,0.00,,,0.01,WeatherCatV1.23B16,2013-11-12 20:02:00,
2013-11-12 20:07:00,42.5,40.1,30.43,West,281,1.0,3.0,91,0.00,,,0.01,WeatherCatV1.23B16,2013-11-12 20:07:00,
2013-11-12 20:12:00,42.1,39.4,30.43,NNW,331,0.0,1.0,90,0.00,,,0.01,WeatherCatV1.23B16,2013-11-12 20:12:00,
2013-11-12 20:17:00,42.4,40.0,30.43,SSW,205,0.0,0.0,91,0.00,,,0.01,WeatherCatV1.23B16,2013-11-12 20:17:00,
2013-11-12 20:22:00,42.7,40.3,30.43,SSW,205,0.0,0.0,91,0.00,,,0.01,WeatherCatV1.23B16,2013-11-12 20:22:00,
2013-11-12 20:27:00,43.0,40.6,30.43,SSW,205,0.0,0.0,91,0.00,,,0.01,WeatherCatV1.23B16,2013-11-12 20:27:00,
2013-11-12 20:32:00,43.0,40.3,30.43,WNW,293,1.0,1.0,90,0.00,,,0.01,WeatherCatV1.23B16,2013-11-12 20:32:00,
2013-11-12 20:37:00,43.3,40.8,30.43,West,276,0.0,1.0,91,0.00,,,0.01,WeatherCatV1.23B16,2013-11-12 20:37:00,
2013-11-12 20:42:00,44.0,41.5,30.44,West,273,1.0,1.0,91,0.00,,,0.01,WeatherCatV1.23B16,2013-11-12 20:42:00,
2013-11-12 20:47:00,44.8,42.0,30.44,WSW,246,1.0,1.0,90,0.00,,,0.01,WeatherCatV1.23B16,2013-11-12 20:47:00,
2013-11-12 20:53:00,45.2,42.2,30.43,SW,224,0.0,1.0,89,0.00,,,0.01,WeatherCatV1.23B16,2013-11-12 20:53:00,
2013-11-12 20:58:00,45.2,41.9,30.43,SW,236,0.0,2.0,88,0.00,,,0.01,WeatherCatV1.23B16,2013-11-12 20:58:00,
2013-11-12 21:03:00,45.0,41.7,30.43,SW,236,0.0,0.0,88,0.00,,,0.01,WeatherCatV1.23B16,2013-11-12 21:03:00,
2013-11-12 21:08:00,44.5,41.2,30.43,SW,236,0.0,0.0,88,0.00,,,0.01,WeatherCatV1.23B16,2013-11-12 21:08:00,
2013-11-12 21:13:00,44.2,41.2,30.43,SW,236,0.0,0.0,89,0.00,,,0.01,WeatherCatV1.23B16,2013-11-12 21:13:00,
2013-11-12 21:18:00,43.9,40.9,30.43,SW,236,0.0,0.0,89,0.00,,,0.01,WeatherCatV1.23B16,2013-11-12 21:18:00,
2013-11-12 21:23:00,43.7,41.0,30.43,SW,236,0.0,0.0,90,0.00,,,0.01,WeatherCatV1.23B16,2013-11-12 21:23:00,
2013-11-12 21:28:00,43.5,40.8,30.43,SW,236,0.0,0.0,90,0.00,,,0.01,WeatherCatV1.23B16,2013-11-12 21:28:00,
2013-11-12 21:33:00,43.7,41.2,30.43,SW,214,0.0,1.0,91,0.00,,,0.01,WeatherCatV1.23B16,2013-11-12 21:33:00,
2013-11-12 21:38:00,44.1,41.6,30.44,SW,217,3.0,3.0,91,0.00,,,0.01,WeatherCatV1.23B16,2013-11-12 21:38:00,
2013-11-12 21:43:00,44.4,41.7,30.44,WSW,242,1.0,2.0,90,0.00,,,0.01,WeatherCatV1.23B16,2013-11-12 21:43:00,
2013-11-12 21:48:00,44.6,41.8,30.44,WSW,256,0.0,2.0,90,0.00,,,0.01,WeatherCatV1.23B16,2013-11-12 21:48:00,
2013-11-12 21:53:00,44.5,41.8,30.44,West,276,2.0,3.0,90,0.00,,,0.01,WeatherCatV1.23B16,2013-11-12 21:53:00,
2013-11-12 21:58:00,44.5,41.8,30.43,West,277,1.0,2.0,90,0.00,,,0.01,WeatherCatV1.23B16,2013-11-12 21:58:00,
2013-11-12 22:03:00,44.5,41.5,30.43,West,277,1.0,1.0,89,0.00,,,0.01,WeatherCatV1.23B16,2013-11-12 22:03:00,
2013-11-12 22:08:00,44.1,41.1,30.43,WNW,283,1.0,1.0,89,0.00,,,0.01,WeatherCatV1.23B16,2013-11-12 22:08:00,
2013-11-12 22:13:00,43.9,41.2,30.43,West,281,1.0,2.0,90,0.00,,,0.01,WeatherCatV1.23B16,2013-11-12 22:13:00,
2013-11-12 22:18:00,43.9,41.2,30.43,West,278,1.0,2.0,90,0.00,,,0.01,WeatherCatV1.23B16,2013-11-12 22:18:00,
2013-11-12 22:23:00,43.9,41.2,30.43,WNW,290,1.0,2.0,90,0.00,,,0.01,WeatherCatV1.23B16,2013-11-12 22:23:00,
2013-11-12 22:28:00,43.9,41.2,30.43,WSW,253,2.0,4.0,90,0.00,,,0.01,WeatherCatV1.23B16,2013-11-12 22:28:00,
2013-11-12 22:33:00,44.1,41.1,30.43,WSW,256,4.0,4.0,89,0.00,,,0.01,WeatherCatV1.23B16,2013-11-12 22:33:00,
2013-11-12 22:38:00,44.5,41.2,30.43,West,259,2.0,4.0,88,0.00,,,0.01,WeatherCatV1.23B16,2013-11-12 22:38:00,
2013-11-12 22:43:00,44.7,40.8,30.43,West,260,4.0,4.0,86,0.00,,,0.01,WeatherCatV1.23B16,2013-11-12 22:43:00,
2013-11-12 22:48:00,44.7,40.5,30.43,WNW,282,1.0,3.0,85,0.00,,,0.01,WeatherCatV1.23B16,2013-11-12 22:48:00,
2013-11-12 22:53:00,44.8,40.6,30.43,West,259,3.0,4.0,85,0.00,,,0.01,WeatherCatV1.23B16,2013-11-12 22:53:00,
2013-11-12 22:58:00,44.9,40.4,30.43,West,263,2.0,4.0,84,0.00,,,0.01,WeatherCatV1.23B16,2013-11-12 22:58:00,
2013-11-12 23:03:00,45.0,40.2,30.43,WSW,250,3.0,5.0,83,0.00,,,0.01,WeatherCatV1.23B16,2013-11-12 23:03:00,
2013-11-12 23:08:00,44.8,40.0,30.43,WSW,253,3.0,4.0,83,0.00,,,0.01,WeatherCatV1.23B16,2013-11-12 23:08:00,
2013-11-12 23:13:00,44.9,40.0,30.43,West,272,1.0,5.0,83,0.00,,,0.01,WeatherCatV1.23B16,2013-11-12 23:13:00,
2013-11-12 23:18:00,44.9,40.0,30.43,West,266,3.0,5.0,83,0.00,,,0.01,WeatherCatV1.23B16,2013-11-12 23:18:00,
2013-11-12 23:23:00,45.1,39.9,30.43,WSW,255,4.0,5.0,82,0.00,,,0.01,WeatherCatV1.23B16,2013-11-12 23:23:00,
2013-11-12 23:28:00,45.2,40.0,30.43,WNW,283,3.0,7.0,82,0.00,,,0.01,WeatherCatV1.23B16,2013-11-12 23:28:00,
2013-11-12 23:33:00,45.2,40.0,30.43,West,270,2.0,6.0,82,0.00,,,0.01,WeatherCatV1.23B16,2013-11-12 23:33:00,
2013-11-12 23:38:00,45.1,39.9,30.43,WSW,246,3.0,6.0,82,0.00,,,0.01,WeatherCatV1.23B16,2013-11-12 23:38:00,
2013-11-12 23:43:00,45.0,39.5,30.43,West,259,3.0,3.0,81,0.00,,,0.01,WeatherCatV1.23B16,2013-11-12 23:43:00,
2013-11-12 23:48:00,45.0,39.5,30.43,West,266,2.0,4.0,81,0.00,,,0.01,WeatherCatV1.23B16,2013-11-12 23:48:00,
2013-11-12 23:53:00,45.1,39.6,30.43,West,274,3.0,4.0,81,0.00,,,0.01,WeatherCatV1.23B16,2013-11-12 23:53:00,
2013-11-12 23:58:00,45.2,39.7,30.43,West,280,3.0,6.0,81,0.00,,,0.01,WeatherCatV1.23B16,2013-11-12 23:58:00,